createdAt,value
2023-03-05T00:00:14.787Z,100.00
2023-03-05T00:02:42.567Z,100.00
2023-03-05T00:05:10.140Z,100.00
2023-03-05T00:07:38.031Z,100.00
2023-03-05T00:10:05.813Z,100.00
2023-03-05T00:12:33.608Z,100.00
2023-03-05T00:15:00.851Z,100.00
2023-03-05T00:17:28.302Z,100.00
2023-03-05T00:19:57.064Z,100.00
2023-03-05T00:22:24.568Z,100.00
2023-03-05T00:24:52.450Z,100.00
2023-03-05T00:27:19.851Z,100.00
2023-03-05T00:29:47.210Z,100.00
2023-03-05T00:32:14.452Z,100.00
2023-03-05T00:34:42.237Z,100.00
2023-03-05T00:37:10.065Z,100.00
2023-03-05T00:39:37.370Z,100.00
2023-03-05T00:42:04.831Z,100.00
2023-03-05T00:44:32.008Z,100.00
2023-03-05T00:46:59.279Z,100.00
2023-03-05T00:49:26.707Z,100.00
2023-03-05T00:51:53.939Z,100.00
2023-03-05T00:54:21.986Z,100.00
2023-03-05T00:56:49.250Z,100.00
2023-03-05T00:59:16.600Z,100.00
2023-03-05T01:01:43.803Z,100.00
2023-03-05T01:04:11.109Z,100.00
2023-03-05T01:06:42.830Z,100.00
2023-03-05T01:09:10.319Z,100.00
2023-03-05T01:11:37.635Z,100.00
2023-03-05T01:14:04.863Z,100.00
2023-03-05T01:16:32.332Z,100.00
2023-03-05T01:18:59.662Z,100.00
2023-03-05T01:21:26.983Z,100.00
2023-03-05T01:23:54.494Z,100.00
2023-03-05T01:26:21.987Z,100.00
2023-03-05T01:28:49.238Z,100.00
2023-03-05T01:31:16.566Z,100.00
2023-03-05T01:33:43.897Z,100.00
2023-03-05T01:36:14.928Z,100.00
2023-03-05T01:38:43.043Z,100.00
2023-03-05T01:41:10.911Z,100.00
2023-03-05T01:43:38.220Z,100.00
2023-03-05T01:46:11.827Z,100.00
2023-03-05T01:48:40.777Z,100.00
2023-03-05T01:51:08.282Z,100.00
2023-03-05T01:53:36.073Z,100.00
2023-03-05T01:56:03.566Z,100.00
2023-03-05T01:58:30.927Z,100.00
2023-03-05T02:00:58.373Z,100.00
2023-03-05T02:03:25.898Z,100.00
2023-03-05T02:05:53.686Z,100.00
2023-03-05T02:08:22.582Z,100.00
2023-03-05T02:10:51.565Z,100.00
2023-03-05T02:13:22.684Z,100.00
2023-03-05T02:15:50.260Z,100.00
2023-03-05T02:18:18.229Z,100.00
2023-03-05T02:20:51.154Z,100.00
2023-03-05T02:23:19.953Z,100.00
2023-03-05T02:25:47.185Z,100.00
2023-03-05T02:28:18.122Z,100.00
2023-03-05T02:30:45.364Z,100.00
2023-03-05T02:33:17.780Z,100.00
2023-03-05T02:35:46.490Z,100.00
2023-03-05T02:38:17.045Z,100.00
2023-03-05T02:40:44.974Z,100.00
2023-03-05T02:43:13.516Z,100.00
2023-03-05T02:45:41.168Z,100.00
2023-03-05T02:48:08.839Z,100.00
2023-03-05T02:50:37.046Z,100.00
2023-03-05T02:53:04.758Z,100.00
2023-03-05T02:55:32.456Z,100.00
2023-03-05T02:58:00.866Z,100.00
2023-03-05T03:00:28.632Z,100.00
2023-03-05T03:02:56.486Z,100.00
2023-03-05T03:05:24.147Z,100.00
2023-03-05T03:07:52.287Z,100.00
2023-03-05T03:10:19.921Z,100.00
2023-03-05T03:12:47.296Z,100.00
2023-03-05T03:15:18.650Z,100.00
2023-03-05T03:17:46.472Z,100.00
2023-03-05T03:20:17.191Z,100.00
2023-03-05T03:22:46.029Z,100.00
2023-03-05T03:25:16.196Z,100.00
2023-03-05T03:27:43.798Z,100.00
2023-03-05T03:30:12.887Z,100.00
2023-03-05T03:32:40.351Z,100.00
2023-03-05T03:35:08.967Z,100.00
2023-03-05T03:37:36.611Z,100.00
2023-03-05T03:40:06.018Z,100.00
2023-03-05T03:42:33.840Z,100.00
2023-03-05T03:45:02.532Z,100.00
2023-03-05T03:47:31.269Z,100.00
2023-03-05T03:50:01.500Z,100.00
2023-03-05T03:52:29.145Z,100.00
2023-03-05T03:55:02.131Z,100.00
2023-03-05T03:57:30.675Z,100.00
2023-03-05T03:59:58.168Z,100.00
2023-03-05T04:02:26.603Z,100.00
2023-03-05T04:04:54.084Z,100.00
2023-03-05T04:07:21.567Z,100.00
2023-03-05T04:09:49.308Z,100.00
2023-03-05T04:12:18.417Z,100.00
2023-03-05T04:14:47.521Z,100.00
2023-03-05T04:17:16.298Z,100.00
2023-03-05T04:19:45.087Z,100.00
2023-03-05T04:22:14.256Z,100.00
2023-03-05T04:24:42.209Z,100.00
2023-03-05T04:27:09.991Z,100.00
2023-03-05T04:29:37.557Z,100.00
2023-03-05T04:32:05.561Z,100.00
2023-03-05T04:34:33.468Z,100.00
2023-03-05T04:37:01.295Z,100.00
2023-03-05T04:39:28.979Z,100.00
2023-03-05T04:41:56.592Z,100.00
2023-03-05T04:44:26.095Z,100.00
2023-03-05T04:46:53.889Z,100.00
2023-03-05T04:49:21.446Z,100.00
2023-03-05T04:51:49.719Z,100.00
2023-03-05T04:54:17.193Z,100.00
2023-03-05T04:56:44.800Z,100.00
2023-03-05T04:59:12.219Z,100.00
2023-03-05T05:01:39.767Z,100.00
2023-03-05T05:04:07.556Z,100.00
2023-03-05T05:06:35.167Z,100.00
2023-03-05T05:09:02.703Z,100.00
2023-03-05T05:11:30.156Z,100.00
2023-03-05T05:13:57.521Z,100.00
2023-03-05T05:16:25.052Z,100.00
2023-03-05T05:18:52.525Z,100.00
2023-03-05T05:21:20.540Z,99.71
2023-03-05T05:23:48.049Z,98.87
2023-03-05T05:26:15.587Z,99.55
2023-03-05T05:28:44.043Z,98.95
2023-03-05T05:31:14.245Z,99.96
2023-03-05T05:33:42.664Z,100.00
2023-03-05T05:36:13.817Z,100.00
2023-03-05T05:38:43.047Z,100.00
2023-03-05T05:41:15.820Z,100.00
2023-03-05T05:43:43.665Z,100.00
2023-03-05T05:46:17.071Z,100.00
2023-03-05T05:48:45.161Z,100.00
2023-03-05T05:51:16.032Z,100.00
2023-03-05T05:53:44.320Z,100.00
2023-03-05T05:56:13.081Z,100.00
2023-03-05T05:58:42.487Z,100.00
2023-03-05T06:01:20.595Z,100.00
2023-03-05T06:03:48.284Z,100.00
2023-03-05T06:06:18.780Z,100.00
2023-03-05T06:08:46.716Z,100.00
2023-03-05T06:11:16.304Z,100.00
2023-03-05T06:13:45.126Z,100.00
2023-03-05T06:16:16.050Z,100.00
2023-03-05T06:18:44.061Z,100.00
2023-03-05T06:21:14.464Z,100.00
2023-03-05T06:23:43.340Z,100.00
2023-03-05T06:26:13.024Z,100.00
2023-03-05T06:28:41.361Z,100.00
2023-03-05T06:31:15.021Z,100.00
2023-03-05T06:33:43.312Z,100.00
2023-03-05T06:36:14.064Z,100.00
2023-03-05T06:38:42.260Z,100.00
2023-03-05T06:41:12.937Z,100.00
2023-03-05T06:43:42.796Z,100.00
2023-03-05T06:46:14.844Z,100.00
2023-03-05T06:48:43.721Z,100.00
2023-03-05T06:51:15.568Z,100.00
2023-03-05T06:53:43.971Z,100.00
2023-03-05T06:56:14.089Z,99.22
2023-03-05T06:58:41.725Z,99.71
2023-03-05T07:01:09.763Z,98.59
2023-03-05T07:03:37.619Z,95.83
2023-03-05T07:06:07.771Z,95.74
2023-03-05T07:08:35.768Z,97.49
2023-03-05T07:11:04.433Z,97.30
2023-03-05T07:13:32.167Z,95.51
2023-03-05T07:15:59.897Z,95.25
2023-03-05T07:18:27.666Z,92.82
2023-03-05T07:20:56.075Z,91.90
2023-03-05T07:23:24.473Z,91.02
2023-03-05T07:25:52.062Z,92.85
2023-03-05T07:28:19.612Z,91.73
2023-03-05T07:30:58.518Z,91.21
2023-03-05T07:33:26.803Z,90.61
2023-03-05T07:35:55.403Z,88.79
2023-03-05T07:38:23.104Z,87.93
2023-03-05T07:40:51.228Z,89.56
2023-03-05T07:43:19.279Z,90.39
2023-03-05T07:45:48.326Z,90.75
2023-03-05T07:48:18.410Z,89.52
2023-03-05T07:50:46.017Z,88.14
2023-03-05T07:53:15.238Z,88.88
2023-03-05T07:55:45.124Z,88.80
2023-03-05T07:58:13.854Z,89.14
2023-03-05T08:00:41.500Z,88.30
2023-03-05T08:03:09.279Z,87.77
2023-03-05T08:05:40.113Z,85.74
2023-03-05T08:08:08.719Z,85.48
2023-03-05T08:10:37.386Z,86.04
2023-03-05T08:13:05.985Z,86.05
2023-03-05T08:15:33.904Z,86.53
2023-03-05T08:18:01.415Z,86.03
2023-03-05T08:20:29.097Z,84.48
2023-03-05T08:22:56.571Z,84.46
2023-03-05T08:25:24.116Z,84.52
2023-03-05T08:27:51.644Z,84.16
2023-03-05T08:30:22.366Z,81.83
2023-03-05T08:32:49.974Z,82.50
2023-03-05T08:35:17.521Z,82.34
2023-03-05T08:37:45.417Z,81.46
2023-03-05T08:40:13.378Z,81.54
2023-03-05T08:42:40.946Z,81.17
2023-03-05T08:45:09.329Z,79.59
2023-03-05T08:47:37.088Z,78.05
2023-03-05T08:50:04.880Z,78.22
2023-03-05T08:52:32.360Z,77.29
2023-03-05T08:54:59.891Z,74.69
2023-03-05T08:57:27.424Z,73.22
2023-03-05T08:59:54.868Z,72.76
2023-03-05T09:02:23.141Z,71.42
2023-03-05T09:04:50.600Z,71.62
2023-03-05T09:07:18.173Z,68.93
2023-03-05T09:09:45.869Z,69.59
2023-03-05T09:12:13.623Z,69.19
2023-03-05T09:14:42.048Z,68.22
2023-03-05T09:17:09.465Z,67.60
2023-03-05T09:19:36.854Z,68.08
2023-03-05T09:22:04.255Z,68.97
2023-03-05T09:24:32.787Z,67.57
2023-03-05T09:27:00.430Z,68.87
2023-03-05T09:29:30.761Z,66.46
2023-03-05T09:31:58.299Z,66.74
2023-03-05T09:34:25.594Z,66.76
2023-03-05T09:36:52.957Z,68.90
2023-03-05T09:39:20.259Z,66.23
2023-03-05T09:41:50.576Z,66.35
2023-03-05T09:44:30.390Z,66.59
2023-03-05T09:47:16.318Z,67.41
2023-03-05T09:49:43.762Z,66.73
2023-03-05T09:52:14.294Z,66.47
2023-03-05T09:54:43.189Z,65.63
2023-03-05T09:57:22.673Z,66.95
2023-03-05T09:59:50.469Z,64.62
2023-03-05T10:02:29.060Z,64.76
2023-03-05T10:05:08.730Z,64.69
2023-03-05T10:07:41.694Z,62.45
2023-03-05T10:10:12.011Z,63.90
2023-03-05T10:13:00.202Z,64.50
2023-03-05T10:15:36.833Z,63.63
2023-03-05T10:18:10.277Z,63.26
2023-03-05T10:20:53.048Z,62.50
2023-03-05T10:23:29.336Z,61.77
2023-03-05T10:26:15.159Z,60.83
2023-03-05T10:28:46.580Z,62.19
2023-03-05T10:31:26.258Z,61.16
2023-03-05T10:34:03.117Z,61.67
2023-03-05T10:36:30.318Z,61.04
2023-03-05T10:38:59.994Z,61.64
2023-03-05T10:41:45.698Z,60.50
2023-03-05T10:44:18.443Z,59.79
2023-03-05T10:46:49.856Z,59.80
2023-03-05T10:49:23.560Z,58.62
2023-03-05T10:51:51.953Z,59.97
2023-03-05T10:54:30.030Z,59.04
2023-03-05T10:57:23.676Z,57.99
2023-03-05T10:59:53.389Z,58.68
2023-03-05T11:02:21.980Z,58.36
2023-03-05T11:04:50.272Z,59.39
2023-03-05T11:07:17.515Z,58.77
2023-03-05T11:09:57.996Z,59.83
2023-03-05T11:12:27.113Z,58.09
2023-03-05T11:15:09.509Z,58.31
2023-03-05T11:17:44.761Z,57.83
2023-03-05T11:20:27.505Z,57.68
2023-03-05T11:23:04.214Z,58.55
2023-03-05T11:25:33.110Z,56.73
2023-03-05T11:28:01.558Z,58.71
2023-03-05T11:30:28.841Z,59.43
2023-03-05T11:33:10.712Z,58.39
2023-03-05T11:35:39.409Z,57.72
2023-03-05T11:38:15.046Z,57.79
2023-03-05T11:40:42.771Z,57.84
2023-03-05T11:43:15.176Z,57.20
2023-03-05T11:45:42.719Z,56.72
2023-03-05T11:48:17.832Z,56.51
2023-03-05T11:50:49.401Z,56.30
2023-03-05T11:53:17.106Z,56.93
2023-03-05T11:55:46.029Z,56.22
2023-03-05T11:58:32.369Z,56.33
2023-03-05T12:01:01.304Z,55.69
2023-03-05T12:03:36.351Z,54.63
2023-03-05T12:06:07.784Z,54.88
2023-03-05T12:08:37.448Z,54.94
2023-03-05T12:11:07.395Z,56.47
2023-03-05T12:13:42.429Z,56.47
2023-03-05T12:16:25.840Z,56.06
2023-03-05T12:19:11.997Z,55.61
2023-03-05T12:21:41.201Z,55.99
2023-03-05T12:24:26.547Z,54.72
2023-03-05T12:27:04.500Z,53.29
2023-03-05T12:29:49.330Z,53.13
2023-03-05T12:32:26.027Z,53.29
2023-03-05T12:34:58.110Z,53.66
2023-03-05T12:37:25.623Z,53.40
2023-03-05T12:39:52.952Z,53.73
2023-03-05T12:42:29.526Z,53.35
2023-03-05T12:45:12.641Z,55.48
2023-03-05T12:47:47.010Z,54.99
2023-03-05T12:50:31.047Z,54.01
2023-03-05T12:52:59.536Z,55.44
2023-03-05T12:55:27.049Z,55.17
2023-03-05T12:57:58.657Z,54.26
2023-03-05T13:00:28.065Z,54.11
2023-03-05T13:02:58.735Z,53.38
2023-03-05T13:05:32.212Z,54.94
2023-03-05T13:08:15.904Z,56.84
2023-03-05T13:10:44.192Z,56.54
2023-03-05T13:13:14.439Z,57.16
2023-03-05T13:15:45.406Z,56.39
2023-03-05T13:18:18.846Z,55.54
2023-03-05T13:20:46.476Z,55.29
2023-03-05T13:23:14.618Z,55.07
2023-03-05T13:25:42.823Z,55.58
2023-03-05T13:28:12.099Z,56.00
2023-03-05T13:30:39.464Z,56.90
2023-03-05T13:33:15.868Z,56.59
2023-03-05T13:35:47.358Z,55.71
2023-03-05T13:38:29.548Z,55.54
2023-03-05T13:41:03.191Z,55.17
2023-03-05T13:43:30.442Z,55.32
2023-03-05T13:45:58.774Z,54.31
2023-03-05T13:48:27.185Z,54.84
2023-03-05T13:50:56.394Z,55.18
2023-03-05T13:53:27.962Z,55.49
2023-03-05T13:56:00.326Z,56.38
2023-03-05T13:58:44.365Z,55.26
2023-03-05T14:01:13.577Z,54.88
2023-03-05T14:03:41.032Z,55.38
2023-03-05T14:06:11.780Z,56.18
2023-03-05T14:08:40.163Z,56.58
2023-03-05T14:11:18.718Z,55.67
2023-03-05T14:13:47.130Z,55.98
2023-03-05T14:16:15.903Z,55.69
2023-03-05T14:18:56.705Z,56.50
2023-03-05T14:21:24.797Z,55.33
2023-03-05T14:23:54.874Z,55.08
2023-03-05T14:26:44.976Z,54.80
2023-03-05T14:29:17.664Z,53.73
2023-03-05T14:31:56.861Z,53.82
2023-03-05T14:34:38.675Z,54.95
2023-03-05T14:37:07.797Z,54.79
2023-03-05T14:39:35.296Z,54.45
2023-03-05T14:42:15.478Z,54.08
2023-03-05T14:44:43.752Z,55.12
2023-03-05T14:47:10.934Z,54.31
2023-03-05T14:49:38.425Z,54.48
2023-03-05T14:52:06.766Z,54.30
2023-03-05T14:54:37.252Z,54.26
2023-03-05T14:57:05.505Z,53.67
2023-03-05T14:59:33.481Z,54.39
2023-03-05T15:02:04.366Z,53.91
2023-03-05T15:04:32.577Z,54.07
2023-03-05T15:07:00.270Z,56.24
2023-03-05T15:09:27.805Z,55.02
2023-03-05T15:11:55.453Z,55.24
2023-03-05T15:14:23.020Z,54.15
2023-03-05T15:16:50.222Z,54.13
2023-03-05T15:19:18.185Z,53.66
2023-03-05T15:21:45.859Z,56.18
2023-03-05T15:24:14.915Z,55.30
2023-03-05T15:26:42.475Z,56.16
2023-03-05T15:29:09.850Z,56.91
2023-03-05T15:31:40.660Z,56.69
2023-03-05T15:34:08.202Z,57.94
2023-03-05T15:36:35.402Z,57.75
2023-03-05T15:39:02.627Z,56.96
2023-03-05T15:41:30.144Z,58.10
2023-03-05T15:43:57.399Z,57.60
2023-03-05T15:46:24.795Z,57.40
2023-03-05T15:48:52.399Z,57.47
2023-03-05T15:51:20.619Z,56.49
2023-03-05T15:53:47.827Z,57.69
2023-03-05T15:56:16.587Z,57.68
2023-03-05T15:58:43.918Z,57.47
2023-03-05T16:01:11.857Z,57.66
2023-03-05T16:03:39.808Z,58.03
2023-03-05T16:06:09.406Z,59.48
2023-03-05T16:08:37.667Z,58.97
2023-03-05T16:11:05.238Z,58.39
2023-03-05T16:13:33.405Z,58.52
2023-03-05T16:16:01.498Z,59.53
2023-03-05T16:18:30.172Z,59.06
2023-03-05T16:20:57.496Z,60.56
2023-03-05T16:23:24.860Z,60.34
2023-03-05T16:25:52.267Z,60.83
2023-03-05T16:28:21.827Z,61.22
2023-03-05T16:30:53.511Z,61.81
2023-03-05T16:33:21.061Z,61.82
2023-03-05T16:35:49.010Z,62.69
2023-03-05T16:38:16.738Z,65.33
2023-03-05T16:41:06.328Z,67.91
2023-03-05T16:43:32.539Z,69.47
2023-03-05T16:45:59.949Z,70.34
2023-03-05T16:48:29.134Z,71.05
2023-03-05T16:50:57.806Z,71.48
2023-03-05T16:53:25.234Z,73.54
2023-03-05T16:55:52.468Z,74.96
2023-03-05T16:58:20.039Z,74.65
2023-03-05T17:00:48.744Z,75.54
2023-03-05T17:03:17.150Z,76.99
2023-03-05T17:05:45.105Z,77.51
2023-03-05T17:08:12.822Z,77.65
2023-03-05T17:10:41.848Z,79.40
2023-03-05T17:13:09.490Z,79.52
2023-03-05T17:15:36.851Z,79.60
2023-03-05T17:18:04.405Z,80.52
2023-03-05T17:20:31.678Z,80.25
2023-03-05T17:23:02.414Z,80.04
2023-03-05T17:25:31.017Z,80.89
2023-03-05T17:27:58.769Z,81.56
2023-03-05T17:30:28.338Z,82.50
2023-03-05T17:32:56.444Z,82.32
2023-03-05T17:35:24.797Z,81.54
2023-03-05T17:37:56.103Z,82.63
2023-03-05T17:40:24.141Z,82.72
2023-03-05T17:42:52.048Z,82.99
2023-03-05T17:45:19.969Z,82.99
2023-03-05T17:47:47.948Z,83.81
2023-03-05T17:50:15.991Z,83.26
2023-03-05T17:52:43.552Z,83.00
2023-03-05T17:55:13.931Z,83.05
2023-03-05T17:57:43.113Z,82.70
2023-03-05T18:00:20.284Z,82.61
2023-03-05T18:02:49.405Z,84.04
2023-03-05T18:05:17.937Z,83.94
2023-03-05T18:07:45.648Z,83.63
2023-03-05T18:10:14.530Z,83.30
2023-03-05T18:12:43.519Z,83.52
2023-03-05T18:15:13.248Z,83.07
2023-03-05T18:17:42.399Z,82.99
2023-03-05T18:20:22.949Z,82.79
2023-03-05T18:22:50.492Z,83.71
2023-03-05T18:25:18.205Z,83.31
2023-03-05T18:27:45.689Z,83.70
2023-03-05T18:30:14.156Z,83.83
2023-03-05T18:32:41.645Z,84.19
2023-03-05T18:35:10.124Z,83.91
2023-03-05T18:37:39.871Z,84.74
2023-03-05T18:40:10.035Z,84.76
2023-03-05T18:42:37.319Z,84.87
2023-03-05T18:45:06.137Z,84.97
2023-03-05T18:47:33.972Z,85.47
2023-03-05T18:50:01.154Z,85.69
2023-03-05T18:52:28.406Z,85.54
2023-03-05T18:54:55.673Z,85.59
2023-03-05T18:57:22.851Z,85.78
2023-03-05T18:59:50.081Z,86.01
2023-03-05T19:02:17.616Z,86.13
2023-03-05T19:04:44.805Z,86.07
2023-03-05T19:07:12.084Z,85.98
2023-03-05T19:09:53.264Z,85.90
2023-03-05T19:12:22.218Z,86.86
2023-03-05T19:14:49.862Z,86.41
2023-03-05T19:17:17.326Z,85.97
2023-03-05T19:19:49.129Z,85.79
2023-03-05T19:22:16.447Z,85.54
2023-03-05T19:24:44.527Z,85.75
2023-03-05T19:27:13.911Z,85.83
2023-03-05T19:29:42.421Z,85.49
2023-03-05T19:32:14.452Z,85.41
2023-03-05T19:34:43.074Z,85.30
2023-03-05T19:37:11.385Z,85.27
2023-03-05T19:39:39.458Z,85.50
2023-03-05T19:42:08.207Z,84.88
2023-03-05T19:44:36.321Z,84.67
2023-03-05T19:47:04.543Z,85.11
2023-03-05T19:49:35.048Z,84.14
2023-03-05T19:52:07.104Z,84.21
2023-03-05T19:54:35.976Z,82.19
2023-03-05T19:57:05.089Z,81.76
2023-03-05T19:59:34.037Z,81.38
2023-03-05T20:02:02.709Z,82.33
2023-03-05T20:04:31.002Z,83.23
2023-03-05T20:06:59.905Z,84.19
2023-03-05T20:09:29.320Z,84.47
2023-03-05T20:11:59.256Z,84.86
2023-03-05T20:14:29.813Z,85.12
2023-03-05T20:16:58.682Z,85.17
2023-03-05T20:19:27.089Z,86.80
2023-03-05T20:21:56.038Z,86.38
2023-03-05T20:24:24.719Z,87.02
2023-03-05T20:26:53.696Z,85.72
2023-03-05T20:29:23.092Z,86.11
2023-03-05T20:31:54.149Z,86.82
2023-03-05T20:34:23.323Z,88.03
2023-03-05T20:36:52.148Z,88.75
2023-03-05T20:39:20.470Z,88.93
2023-03-05T20:41:49.998Z,88.70
2023-03-05T20:44:18.841Z,89.18
2023-03-05T20:47:00.294Z,89.14
2023-03-05T20:49:32.340Z,89.93
2023-03-05T20:52:01.053Z,89.91
2023-03-05T20:54:29.388Z,89.48
2023-03-05T20:56:58.091Z,89.58
2023-03-05T20:59:26.484Z,89.25
2023-03-05T21:01:55.154Z,89.63
2023-03-05T21:04:23.708Z,89.34
2023-03-05T21:06:53.980Z,89.20
2023-03-05T21:09:24.630Z,89.09
2023-03-05T21:11:53.617Z,89.11
2023-03-05T21:14:22.248Z,89.09
2023-03-05T21:16:50.830Z,89.62
2023-03-05T21:19:19.871Z,88.73
2023-03-05T21:21:49.606Z,89.58
2023-03-05T21:24:20.603Z,89.84
2023-03-05T21:26:50.493Z,90.32
2023-03-05T21:29:20.510Z,90.64
2023-03-05T21:31:50.599Z,90.75
2023-03-05T21:34:21.320Z,90.15
2023-03-05T21:36:50.343Z,89.95
2023-03-05T21:39:18.912Z,90.08
2023-03-05T21:41:48.462Z,89.97
2023-03-05T21:44:18.150Z,91.00
2023-03-05T21:46:46.279Z,91.46
2023-03-05T21:49:14.395Z,91.64
2023-03-05T21:51:53.161Z,92.10
2023-03-05T21:54:23.055Z,92.17
2023-03-05T21:56:50.231Z,91.45
2023-03-05T21:59:17.598Z,92.70
2023-03-05T22:01:45.007Z,92.31
2023-03-05T22:04:12.330Z,92.86
2023-03-05T22:06:39.665Z,93.01
2023-03-05T22:09:07.328Z,92.75
2023-03-05T22:11:34.947Z,93.26
2023-03-05T22:14:02.868Z,93.44
2023-03-05T22:16:30.229Z,93.27
2023-03-05T22:18:57.471Z,93.73
2023-03-05T22:21:28.349Z,93.02
2023-03-05T22:23:58.993Z,93.58
2023-03-05T22:26:26.763Z,94.01
2023-03-05T22:28:54.175Z,94.10
2023-03-05T22:31:25.208Z,93.86
2023-03-05T22:33:52.924Z,93.37
2023-03-05T22:36:20.275Z,93.75
2023-03-05T22:38:47.906Z,93.95
2023-03-05T22:41:16.679Z,94.57
2023-03-05T22:43:43.968Z,93.45
2023-03-05T22:46:16.146Z,94.09
2023-03-05T22:48:43.833Z,94.91
2023-03-05T22:51:11.469Z,95.71
2023-03-05T22:53:39.356Z,95.72
2023-03-05T22:56:07.661Z,95.50
2023-03-05T22:58:37.759Z,95.32
2023-03-05T23:01:25.444Z,95.61
2023-03-05T23:04:03.313Z,95.05
2023-03-05T23:06:31.164Z,94.71
2023-03-05T23:08:58.724Z,95.18
2023-03-05T23:11:26.177Z,95.79
2023-03-05T23:13:53.424Z,95.65
2023-03-05T23:16:20.629Z,95.05
2023-03-05T23:18:47.897Z,95.05
2023-03-05T23:21:15.185Z,94.92
2023-03-05T23:23:42.362Z,95.96
2023-03-05T23:26:09.575Z,95.99
2023-03-05T23:28:37.319Z,95.85
2023-03-05T23:31:05.406Z,96.34
2023-03-05T23:33:32.778Z,96.06
2023-03-05T23:36:00.280Z,96.84
2023-03-05T23:38:28.617Z,96.62
2023-03-05T23:40:59.040Z,96.59
2023-03-05T23:43:27.794Z,97.01
2023-03-05T23:45:55.641Z,96.92
2023-03-05T23:48:24.206Z,96.99
2023-03-05T23:50:51.731Z,97.08
2023-03-05T23:53:21.071Z,97.52
2023-03-05T23:55:48.832Z,98.17
2023-03-05T23:58:16.418Z,97.77
